Marlborough, MA (01752)

2:45 AM EDT on October 23, 2014 (GMT -0400)
Cusella Dr | Change Station
CLOSE
Current Station
Personal Weather Station
Location: Marlborough, MA
Elevation: 423 ft
Nearby Weather Stations

Elev 423 ft 42.36 °N, 71.56 °W | Updated 1 minute ago

Rain
Rain
46.9 °F
Feels Like 44 °F
N
6.3
Wind Variable Wind from NNE
Gusts 6.3 mph

Today
High -- | Low -- °F
--% Chance of Precip.
Yesterday
High -- | Low -- °F
Precip. -- in
7:08 AM 5:51 PM
Waning Crescent, 0% visible
Pressure 29.83 in
Visibility 6.0 miles
Clouds Mostly Cloudy 1100 ft
Overcast 1600 ft
Windchill 44 °F
Dew Point 46 °F
Humidity 98%
Rainfall 0.00 in
Snow Depth Not available.
UV 0 out of 12
Pollen .30 out of 12
Air Quality Not available.
Flu Activity No Activity
METAR KBED 230556Z AUTO 36010KT 6SM -RA BR BKN011 OVC016 09/09 A2979 RMK AO2 SLP102 P0034 60065 T00890089 10100 20089 55012 TSNO

More Conditions Fewer Conditions

Pressure 29.83 in
Visibility 6.0 miles
Clouds Mostly Cloudy 1100 ft
Overcast 1600 ft
Windchill 44 °F
Dew Point 46 °F
Humidity 98%
Rainfall 0.00 in
Snow Depth Not available.
UV 0 out of 12
Pollen .30 out of 12
Air Quality Not available.
Flu Activity No Activity
METAR KBED 230556Z AUTO 36010KT 6SM -RA BR BKN011 OVC016 09/09 A2979 RMK AO2 SLP102 P0034 60065 T00890089 10100 20089 55012 TSNO

More Conditions Fewer Conditions

10-Day Weather Forecast

Almanac

Astronomy

Oct. 23, 2014 Rise Set
Actual Time 7:08 AM EDT 5:51 PM EDT
Civil Twilight 6:39 AM EDT 6:20 PM EDT
Nautical Twilight 6:06 AM EDT 6:53 PM EDT
Astronomical Twilight 5:34 AM EDT 7:25 PM EDT
Moon 6:44 AM EDT 5:51 PM EDT
Length of Visible Light 11h 40m
Length of Day
10h 43m
Tomorrow will be 2m 40s shorter.
Waning Crescent, 0% of the Moon is Illuminated
Today
Waning Crescent
Oct 23
New
Oct 30
First Quarter
Nov 6
Full
Nov 14
Last Quarter

Today's Extremes

State Highs State Lows

Community

WunderPhotos

Upload Photos

1,764,194 photos uploaded!

Nearby

Air Quality

  Air Quality AQ Index Pollutant
Thursday Good
PM2.5

Snow Depth

Station Depth Elevation
No new snow has been reported.

Earthquake Activity

City Distance Mag. Time & Date
No recent earthquake activity has been reported nearby.
Minimum magnitude displayed is 2.5.

Coastal Water Temperatures

Place Temperature
Boston, MA 57.0 °F
Providence, RI 60.1 °F
Fall River, MA 62.1 °F
Conimicut Light, RI 60.1 °F

Nearby Weather Stations